createdAt,value
2023-04-09T00:02:16.761Z,2.67
2023-04-09T00:04:49.478Z,3.08
2023-04-09T00:07:22.118Z,2.67
2023-04-09T00:09:54.867Z,2.70
2023-04-09T00:12:27.444Z,2.80
2023-04-09T00:15:02.732Z,2.85
2023-04-09T00:17:35.755Z,2.70
2023-04-09T00:20:10.438Z,2.67
2023-04-09T00:22:43.142Z,2.50
2023-04-09T00:25:16.162Z,2.60
2023-04-09T00:27:48.984Z,2.25
2023-04-09T00:30:22.421Z,2.72
2023-04-09T00:32:55.202Z,2.90
2023-04-09T00:35:30.118Z,2.60
2023-04-09T00:38:02.811Z,2.38
2023-04-09T00:40:35.781Z,2.50
2023-04-09T00:43:08.375Z,2.40
2023-04-09T00:45:41.808Z,2.50
2023-04-09T00:48:15.765Z,2.53
2023-04-09T00:50:48.593Z,2.25
2023-04-09T00:53:21.542Z,2.97
2023-04-09T00:58:28.703Z,2.40
2023-04-09T01:01:01.774Z,2.47
2023-04-09T01:03:34.886Z,2.80
2023-04-09T01:06:51.711Z,2.00
2023-04-09T01:09:48.426Z,2.45
2023-04-09T01:12:40.144Z,2.25
2023-04-09T01:15:18.746Z,2.45
2023-04-09T01:18:03.484Z,3.20
2023-04-09T01:20:46.825Z,3.63
2023-04-09T01:23:44.533Z,3.88
2023-04-09T01:26:38.944Z,3.65
2023-04-09T01:29:11.756Z,3.58
2023-04-09T01:31:45.670Z,3.72
2023-04-09T01:34:19.786Z,3.25
2023-04-09T01:37:03.010Z,3.50
2023-04-09T01:39:38.697Z,3.50
2023-04-09T01:42:13.329Z,3.03
2023-04-09T01:44:47.104Z,3.08
2023-04-09T01:47:21.834Z,2.85
2023-04-09T01:49:54.857Z,3.45
2023-04-09T01:52:28.066Z,3.45
2023-04-09T01:55:00.745Z,3.53
2023-04-09T01:57:33.348Z,3.42
2023-04-09T02:00:07.753Z,3.65
2023-04-09T02:03:17.249Z,3.40
2023-04-09T02:06:06.328Z,3.80
2023-04-09T02:08:39.249Z,3.28
2023-04-09T02:11:12.753Z,3.40
2023-04-09T02:13:46.591Z,2.60
2023-04-09T02:16:20.244Z,3.20
2023-04-09T02:19:01.628Z,2.95
2023-04-09T02:21:34.361Z,2.60
2023-04-09T02:24:06.920Z,2.63
2023-04-09T02:26:39.591Z,2.75
2023-04-09T02:29:12.138Z,3.15
2023-04-09T02:31:45.524Z,3.28
2023-04-09T02:34:18.198Z,3.13
2023-04-09T02:36:50.887Z,3.22
2023-04-09T02:39:23.466Z,3.03
2023-04-09T02:41:56.594Z,3.60
2023-04-09T02:44:29.322Z,2.97
2023-04-09T02:47:03.542Z,3.10
2023-04-09T02:49:36.508Z,3.35
2023-04-09T02:52:11.696Z,3.58
2023-04-09T02:54:44.538Z,4.22
2023-04-09T02:57:17.410Z,3.50
2023-04-09T02:59:50.046Z,3.58
2023-04-09T03:02:23.415Z,3.53
2023-04-09T03:07:28.558Z,3.00
2023-04-09T03:10:01.138Z,2.63
2023-04-09T03:12:33.856Z,3.10
2023-04-09T03:15:07.300Z,2.85
2023-04-09T03:17:40.295Z,3.05
2023-04-09T03:20:12.993Z,3.38
2023-04-09T03:22:45.560Z,3.53
2023-04-09T03:25:41.023Z,3.15
2023-04-09T03:28:18.136Z,3.70
2023-04-09T03:31:07.997Z,3.17
2023-04-09T03:33:55.019Z,3.30
2023-04-09T03:36:36.953Z,3.35
2023-04-09T03:39:21.800Z,2.92
2023-04-09T03:42:01.164Z,2.55
2023-04-09T03:44:45.303Z,2.55
2023-04-09T03:47:22.975Z,2.80
2023-04-09T03:49:57.965Z,2.97
2023-04-09T03:52:33.739Z,2.70
2023-04-09T03:55:16.855Z,2.38
2023-04-09T03:57:49.818Z,2.22
2023-04-09T04:00:25.157Z,2.72
2023-04-09T04:03:17.698Z,2.30
2023-04-09T04:06:10.415Z,2.47
2023-04-09T04:08:52.720Z,2.53
2023-04-09T04:11:29.948Z,2.88
2023-04-09T04:14:02.483Z,3.00
2023-04-09T04:16:35.449Z,3.22
2023-04-09T04:19:33.382Z,2.90
2023-04-09T04:22:06.023Z,3.20
2023-04-09T04:24:44.132Z,3.33
2023-04-09T04:27:17.832Z,2.72
2023-04-09T04:29:50.314Z,3.22
2023-04-09T04:32:41.826Z,2.80
2023-04-09T04:35:17.104Z,3.00
2023-04-09T04:37:52.745Z,3.22
2023-04-09T04:40:26.502Z,2.97
2023-04-09T04:43:04.648Z,2.90
2023-04-09T04:45:37.225Z,2.42
2023-04-09T04:48:15.397Z,2.33
2023-04-09T04:50:48.164Z,2.95
2023-04-09T04:53:22.257Z,2.22
2023-04-09T04:55:56.698Z,2.58
2023-04-09T04:58:32.080Z,2.40
2023-04-09T05:01:06.875Z,2.70
2023-04-09T05:03:39.835Z,2.08
2023-04-09T05:06:41.734Z,3.28
2023-04-09T05:09:21.851Z,4.00
2023-04-09T05:12:21.135Z,4.22
2023-04-09T05:14:57.342Z,3.97
2023-04-09T05:17:33.450Z,3.20
2023-04-09T05:20:07.068Z,3.00
2023-04-09T05:25:22.679Z,3.00
2023-04-09T05:27:55.685Z,2.92
2023-04-09T05:30:29.855Z,2.35
2023-04-09T05:33:06.045Z,2.40
2023-04-09T05:38:13.902Z,2.85
2023-04-09T05:40:50.289Z,2.30
2023-04-09T05:43:22.926Z,2.60
2023-04-09T05:45:55.489Z,2.60
2023-04-09T05:48:28.154Z,2.45
2023-04-09T05:51:01.888Z,3.17
2023-04-09T05:56:16.839Z,2.83
2023-04-09T05:58:58.895Z,3.13
2023-04-09T06:01:31.583Z,2.80
2023-04-09T06:04:04.993Z,2.75
2023-04-09T06:06:41.171Z,2.65
2023-04-09T06:09:14.065Z,2.80
2023-04-09T06:11:46.644Z,2.65
2023-04-09T06:14:19.261Z,2.72
2023-04-09T06:16:51.927Z,3.60
2023-04-09T06:19:24.552Z,2.55
2023-04-09T06:21:57.124Z,3.13
2023-04-09T06:24:32.722Z,2.75
2023-04-09T06:27:05.365Z,2.78
2023-04-09T06:29:37.950Z,2.70
2023-04-09T06:32:10.570Z,2.60
2023-04-09T06:34:43.004Z,2.58
2023-04-09T06:37:16.632Z,2.83
2023-04-09T06:40:00.613Z,2.83
2023-04-09T06:42:35.591Z,2.28
2023-04-09T06:45:22.833Z,2.33
2023-04-09T06:47:55.366Z,2.40
2023-04-09T06:50:28.297Z,1.65
2023-04-09T06:53:00.949Z,2.00
2023-04-09T06:55:33.498Z,1.60
2023-04-09T06:58:06.041Z,1.52
2023-04-09T07:00:38.708Z,1.60
2023-04-09T07:03:11.509Z,2.05
2023-04-09T07:05:44.274Z,1.92
2023-04-09T07:08:16.765Z,1.60
2023-04-09T07:10:49.519Z,1.83
2023-04-09T07:13:22.211Z,2.03
2023-04-09T07:15:54.780Z,2.20
2023-04-09T07:18:51.926Z,1.65
2023-04-09T07:21:24.435Z,1.90
2023-04-09T07:23:57.759Z,1.95
2023-04-09T07:26:30.906Z,1.90
2023-04-09T07:31:37.270Z,1.77
2023-04-09T07:34:09.878Z,1.98
2023-04-09T07:36:43.105Z,2.38
2023-04-09T07:39:15.980Z,2.08
2023-04-09T07:41:48.904Z,1.90
2023-04-09T07:44:21.430Z,2.05
2023-04-09T07:46:53.932Z,1.48
2023-04-09T07:49:26.771Z,1.60
2023-04-09T07:52:02.395Z,1.30
2023-04-09T07:54:36.099Z,1.23
2023-04-09T07:57:08.631Z,1.50
2023-04-09T07:59:41.339Z,1.35
2023-04-09T08:02:15.434Z,1.20
2023-04-09T08:04:48.422Z,1.80
2023-04-09T08:07:21.022Z,1.45
2023-04-09T08:09:56.516Z,1.20
2023-04-09T08:12:29.111Z,1.35
2023-04-09T08:15:03.884Z,1.60
2023-04-09T08:17:39.588Z,2.50
2023-04-09T08:20:12.919Z,1.70
2023-04-09T08:22:45.743Z,1.73
2023-04-09T08:25:18.385Z,1.13
2023-04-09T08:27:53.946Z,1.38
2023-04-09T08:30:26.502Z,1.33
2023-04-09T08:32:59.173Z,1.58
2023-04-09T08:35:32.281Z,0.98
2023-04-09T08:40:37.752Z,1.30
2023-04-09T08:43:13.431Z,1.05
2023-04-09T08:45:46.050Z,1.30
2023-04-09T08:48:19.371Z,1.20
2023-04-09T08:50:54.136Z,1.33
2023-04-09T08:53:27.734Z,1.10
2023-04-09T08:56:00.390Z,1.20
2023-04-09T08:58:32.802Z,1.38
2023-04-09T09:01:05.427Z,1.30
2023-04-09T09:03:57.377Z,1.33
2023-04-09T09:06:34.118Z,1.90
2023-04-09T09:09:11.975Z,1.67
2023-04-09T09:11:47.065Z,1.10
2023-04-09T09:14:20.771Z,1.55
2023-04-09T09:16:56.454Z,1.55
2023-04-09T09:19:31.373Z,1.23
2023-04-09T09:22:12.786Z,1.30
2023-04-09T09:24:50.371Z,1.20
2023-04-09T09:27:43.460Z,1.63
2023-04-09T09:30:27.082Z,1.40
2023-04-09T09:33:11.410Z,1.23
2023-04-09T09:36:04.150Z,1.27
2023-04-09T09:38:57.522Z,1.02
2023-04-09T09:41:30.868Z,1.13
2023-04-09T09:44:04.779Z,1.48
2023-04-09T09:46:39.588Z,1.30
2023-04-09T09:49:12.104Z,1.30
2023-04-09T09:51:45.041Z,1.75
2023-04-09T09:56:58.464Z,1.80
2023-04-09T09:59:42.187Z,1.83
2023-04-09T10:02:19.995Z,1.80
2023-04-09T10:04:53.232Z,1.88
2023-04-09T10:07:26.058Z,2.20
2023-04-09T10:10:00.280Z,2.05
2023-04-09T10:12:34.325Z,2.00
2023-04-09T10:15:07.711Z,2.13
2023-04-09T10:17:40.701Z,2.20
2023-04-09T10:23:01.533Z,1.80
2023-04-09T10:25:34.397Z,1.73
2023-04-09T10:28:20.664Z,1.90
2023-04-09T10:30:56.130Z,1.90
2023-04-09T10:33:32.658Z,1.88
2023-04-09T10:36:10.141Z,1.90
2023-04-09T10:38:47.272Z,1.88
2023-04-09T10:41:33.424Z,1.75
2023-04-09T10:44:28.902Z,1.88
2023-04-09T10:47:04.166Z,1.80
2023-04-09T10:49:40.582Z,2.00
2023-04-09T10:52:14.037Z,2.30
2023-04-09T10:54:47.335Z,2.20
2023-04-09T10:57:24.687Z,1.70
2023-04-09T10:59:57.279Z,2.28
2023-04-09T11:02:39.206Z,1.63
2023-04-09T11:05:32.553Z,2.35
2023-04-09T11:08:07.843Z,2.20
2023-04-09T11:10:49.800Z,1.85
2023-04-09T11:13:24.503Z,1.70
2023-04-09T11:18:30.945Z,2.00
2023-04-09T11:21:04.860Z,1.70
2023-04-09T11:23:37.550Z,1.85
2023-04-09T11:26:10.631Z,2.00
2023-04-09T11:28:44.256Z,2.08
2023-04-09T11:33:51.970Z,2.03
2023-04-09T11:36:24.614Z,1.75
2023-04-09T11:38:57.242Z,1.63
2023-04-09T11:41:39.729Z,2.03
2023-04-09T11:44:12.329Z,1.63
2023-04-09T11:46:45.845Z,1.40
2023-04-09T11:49:18.492Z,2.35
2023-04-09T11:51:51.410Z,1.70
2023-04-09T11:54:23.856Z,2.00
2023-04-09T11:56:56.707Z,2.10
2023-04-09T11:59:29.538Z,1.73
2023-04-09T12:02:02.730Z,1.60
2023-04-09T12:04:35.710Z,1.58
2023-04-09T12:07:11.413Z,1.90
2023-04-09T12:09:48.865Z,1.58
2023-04-09T12:12:24.249Z,1.48
2023-04-09T12:14:59.185Z,1.55
2023-04-09T12:17:34.844Z,1.73
2023-04-09T12:20:10.016Z,1.58
2023-04-09T12:22:43.823Z,1.40
2023-04-09T12:25:16.704Z,1.17
2023-04-09T12:27:49.280Z,1.15
2023-04-09T12:30:21.826Z,1.60
2023-04-09T12:32:54.987Z,1.48
2023-04-09T12:35:28.515Z,1.65
2023-04-09T12:38:01.380Z,1.33
2023-04-09T12:40:35.892Z,1.58
2023-04-09T12:43:08.434Z,1.40
2023-04-09T12:45:41.014Z,1.33
2023-04-09T12:48:13.557Z,1.40
2023-04-09T12:50:46.110Z,1.40
2023-04-09T12:53:18.672Z,1.40
2023-04-09T12:55:51.238Z,1.20
2023-04-09T12:58:23.746Z,1.63
2023-04-09T13:03:29.887Z,1.30
2023-04-09T13:06:02.585Z,1.30
2023-04-09T13:08:35.210Z,1.40
2023-04-09T13:11:07.859Z,1.55
2023-04-09T13:13:42.529Z,1.70
2023-04-09T13:16:15.246Z,1.23
2023-04-09T13:18:47.809Z,1.48
2023-04-09T13:21:20.588Z,1.27
2023-04-09T13:23:53.328Z,1.40
2023-04-09T13:26:26.260Z,1.17
2023-04-09T13:29:02.142Z,1.20
2023-04-09T13:31:37.658Z,1.65
2023-04-09T13:34:10.142Z,1.20
2023-04-09T13:36:42.666Z,1.80
2023-04-09T13:39:15.220Z,1.40
2023-04-09T13:41:47.770Z,1.38
2023-04-09T13:44:20.364Z,1.40
2023-04-09T13:46:53.069Z,1.83
2023-04-09T13:49:28.199Z,1.40
2023-04-09T13:52:00.924Z,1.50
2023-04-09T13:54:34.018Z,1.40
2023-04-09T13:59:41.827Z,1.30
2023-04-09T14:02:39.047Z,1.50
2023-04-09T14:05:11.646Z,1.23
2023-04-09T14:07:44.186Z,1.30
2023-04-09T14:10:17.130Z,1.35
2023-04-09T14:12:49.733Z,1.67
2023-04-09T14:15:22.457Z,1.90
2023-04-09T14:17:54.958Z,1.30
2023-04-09T14:20:28.092Z,1.83
2023-04-09T14:25:33.309Z,1.70
2023-04-09T14:28:06.217Z,1.60
2023-04-09T14:30:38.762Z,1.40
2023-04-09T14:33:11.554Z,1.45
2023-04-09T14:35:44.347Z,1.50
2023-04-09T14:38:18.126Z,1.60
2023-04-09T14:40:51.470Z,1.38
2023-04-09T14:43:24.065Z,1.15
2023-04-09T14:45:56.656Z,1.42
2023-04-09T14:48:29.252Z,1.35
2023-04-09T14:51:02.073Z,1.17
2023-04-09T14:53:34.705Z,1.40
2023-04-09T14:56:07.500Z,1.50
2023-04-09T14:58:40.055Z,1.80
2023-04-09T15:01:12.650Z,0.93
2023-04-09T15:03:45.565Z,1.30
2023-04-09T15:06:18.199Z,1.30
2023-04-09T15:08:51.160Z,1.30
2023-04-09T15:13:58.102Z,1.30
2023-04-09T15:16:33.023Z,1.38
2023-04-09T15:19:05.721Z,1.40
2023-04-09T15:21:38.374Z,1.40
2023-04-09T15:24:10.931Z,1.45
2023-04-09T15:26:43.611Z,1.50
2023-04-09T15:29:16.447Z,1.00
2023-04-09T15:31:49.853Z,1.08
2023-04-09T15:34:22.383Z,1.00
2023-04-09T15:36:54.984Z,1.15
2023-04-09T15:39:28.824Z,1.30
2023-04-09T15:42:02.292Z,1.17
2023-04-09T15:44:35.017Z,1.30
2023-04-09T15:47:08.166Z,1.17
2023-04-09T15:52:13.730Z,1.25
2023-04-09T15:57:19.849Z,0.98
2023-04-09T15:59:53.315Z,1.23
2023-04-09T16:02:26.319Z,1.00
2023-04-09T16:07:31.904Z,1.20
2023-04-09T16:10:05.105Z,1.35
2023-04-09T16:15:10.902Z,0.90
2023-04-09T16:17:43.424Z,1.30
2023-04-09T16:20:16.141Z,1.30
2023-04-09T16:22:48.750Z,1.10
2023-04-09T16:25:21.474Z,1.13
2023-04-09T16:27:54.016Z,1.38
2023-04-09T16:30:26.591Z,3.10
2023-04-09T16:32:59.191Z,2.15
2023-04-09T16:35:31.971Z,3.20
2023-04-09T16:38:06.070Z,1.20
2023-04-09T16:40:38.731Z,2.13
2023-04-09T16:43:11.781Z,1.42
2023-04-09T16:45:44.461Z,1.75
2023-04-09T16:48:17.158Z,1.85
2023-04-09T16:50:49.764Z,1.52
2023-04-09T16:53:22.329Z,2.08
2023-04-09T16:55:55.188Z,1.23
2023-04-09T16:58:28.159Z,1.40
2023-04-09T17:01:01.039Z,1.40
2023-04-09T17:03:33.688Z,1.63
2023-04-09T17:06:06.866Z,1.75
2023-04-09T17:08:39.409Z,2.22
2023-04-09T17:11:22.267Z,1.70
2023-04-09T17:13:55.048Z,1.55
2023-04-09T17:16:29.088Z,2.15
2023-04-09T17:19:01.908Z,0.88
2023-04-09T17:21:34.448Z,1.40
2023-04-09T17:24:07.300Z,1.60
2023-04-09T17:26:39.869Z,1.30
2023-04-09T17:29:13.940Z,1.10
2023-04-09T17:31:46.687Z,1.63
2023-04-09T17:34:19.716Z,1.27
2023-04-09T17:36:57.097Z,1.05
2023-04-09T17:39:29.703Z,0.98
2023-04-09T17:42:03.604Z,1.20
2023-04-09T17:44:38.938Z,1.10
2023-04-09T17:47:12.631Z,1.20
2023-04-09T17:49:46.147Z,1.10
2023-04-09T17:54:51.199Z,1.20
2023-04-09T17:57:23.742Z,1.10
2023-04-09T17:59:56.310Z,1.10
2023-04-09T18:02:29.075Z,1.00
2023-04-09T18:05:04.783Z,0.88
2023-04-09T18:07:39.092Z,1.02
2023-04-09T18:10:15.329Z,0.90
2023-04-09T18:12:47.948Z,1.10
2023-04-09T18:15:21.972Z,1.00
2023-04-09T18:17:54.559Z,1.02
2023-04-09T18:20:27.218Z,1.10
2023-04-09T18:22:59.766Z,1.17
2023-04-09T18:25:32.418Z,1.10
2023-04-09T18:28:05.198Z,1.60
2023-04-09T18:30:39.051Z,1.67
2023-04-09T18:33:11.732Z,1.42
2023-04-09T18:35:44.300Z,1.30
2023-04-09T18:38:17.800Z,1.30
2023-04-09T18:40:50.497Z,1.20
2023-04-09T18:43:23.085Z,1.00
2023-04-09T18:45:56.377Z,1.10
2023-04-09T18:51:03.292Z,1.33
2023-04-09T18:53:35.934Z,0.90
2023-04-09T18:56:08.605Z,1.00
2023-04-09T18:58:41.280Z,0.80
2023-04-09T19:01:13.824Z,0.98
2023-04-09T19:03:47.793Z,1.20
2023-04-09T19:06:20.763Z,1.10
2023-04-09T19:08:58.337Z,1.05
2023-04-09T19:11:30.986Z,0.98
2023-04-09T19:14:03.796Z,1.15
2023-04-09T19:16:36.512Z,1.00
2023-04-09T19:19:09.045Z,1.23
2023-04-09T19:21:42.881Z,1.58
2023-04-09T19:24:15.637Z,1.17
2023-04-09T19:26:48.190Z,1.05
2023-04-09T19:29:21.028Z,1.15
2023-04-09T19:31:53.639Z,1.30
2023-04-09T19:34:26.302Z,1.38
2023-04-09T19:36:58.946Z,1.30
2023-04-09T19:39:31.781Z,1.25
2023-04-09T19:42:04.512Z,1.20
2023-04-09T19:44:37.009Z,1.42
2023-04-09T19:47:09.677Z,1.17
2023-04-09T19:49:42.403Z,1.55
2023-04-09T19:52:14.929Z,1.45
2023-04-09T19:54:47.727Z,1.63
2023-04-09T19:57:20.223Z,1.60
2023-04-09T19:59:52.763Z,2.03
2023-04-09T20:02:26.018Z,2.10
2023-04-09T20:04:58.668Z,1.38
2023-04-09T20:07:31.783Z,1.77
2023-04-09T20:10:04.614Z,1.42
2023-04-09T20:12:37.181Z,1.75
2023-04-09T20:15:10.321Z,1.92
2023-04-09T20:20:20.165Z,1.80
2023-04-09T20:22:56.783Z,1.90
2023-04-09T20:25:34.656Z,1.52
2023-04-09T20:28:10.022Z,1.70
2023-04-09T20:30:43.147Z,1.60
2023-04-09T20:33:15.918Z,2.15
2023-04-09T20:35:48.529Z,1.05
2023-04-09T20:38:22.492Z,1.20
2023-04-09T20:40:55.083Z,1.02
2023-04-09T20:43:27.700Z,1.10
2023-04-09T20:46:00.499Z,1.13
2023-04-09T20:48:33.108Z,1.00
2023-04-09T20:51:12.034Z,1.15
2023-04-09T20:53:45.805Z,1.20
2023-04-09T20:56:18.649Z,1.10
2023-04-09T20:58:51.879Z,1.23
2023-04-09T21:01:27.298Z,1.13
2023-04-09T21:04:00.144Z,1.00
2023-04-09T21:06:34.830Z,1.10
2023-04-09T21:09:07.420Z,1.20
2023-04-09T21:11:39.953Z,1.15
2023-04-09T21:14:14.825Z,1.38
2023-04-09T21:16:47.662Z,2.10
2023-04-09T21:19:20.217Z,2.00
2023-04-09T21:21:52.872Z,2.13
2023-04-09T21:24:25.508Z,2.00
2023-04-09T21:26:59.074Z,2.10
2023-04-09T21:29:31.588Z,2.15
2023-04-09T21:32:04.133Z,1.95
2023-04-09T21:34:37.963Z,2.50
2023-04-09T21:37:10.806Z,2.53
2023-04-09T21:39:43.288Z,2.25
2023-04-09T21:42:15.983Z,2.22
2023-04-09T21:44:48.551Z,2.33
2023-04-09T21:47:21.129Z,2.17
2023-04-09T21:49:53.732Z,2.10
2023-04-09T21:52:26.524Z,2.10
2023-04-09T21:54:59.139Z,2.38
2023-04-09T21:57:31.764Z,1.90
2023-04-09T22:00:05.629Z,1.52
2023-04-09T22:02:40.322Z,1.15
2023-04-09T22:05:13.182Z,1.30
2023-04-09T22:07:45.808Z,1.55
2023-04-09T22:10:18.639Z,2.08
2023-04-09T22:12:51.587Z,1.92
2023-04-09T22:15:24.343Z,1.50
2023-04-09T22:17:57.856Z,1.60
2023-04-09T22:20:30.838Z,1.48
2023-04-09T22:23:03.583Z,1.50
2023-04-09T22:25:36.769Z,2.05
2023-04-09T22:28:09.367Z,1.70
2023-04-09T22:30:42.897Z,1.33
2023-04-09T22:33:15.818Z,1.40
2023-04-09T22:35:49.328Z,1.10
2023-04-09T22:38:22.857Z,1.15
2023-04-09T22:40:56.106Z,1.40
2023-04-09T22:46:01.735Z,1.40
2023-04-09T22:51:18.029Z,1.42
2023-04-09T22:53:50.585Z,1.58
2023-04-09T22:56:23.712Z,1.92
2023-04-09T22:58:56.369Z,1.30
2023-04-09T23:01:29.124Z,1.60
2023-04-09T23:04:01.812Z,1.73
2023-04-09T23:06:34.970Z,1.48
2023-04-09T23:09:07.471Z,1.50
2023-04-09T23:11:40.062Z,1.80
2023-04-09T23:14:12.625Z,1.45
2023-04-09T23:16:45.209Z,1.42
2023-04-09T23:19:17.737Z,1.40
2023-04-09T23:21:50.357Z,1.55
2023-04-09T23:24:22.899Z,1.48
2023-04-09T23:26:56.381Z,1.30
2023-04-09T23:29:29.065Z,1.60
2023-04-09T23:32:01.715Z,1.23
2023-04-09T23:34:34.364Z,1.38
2023-04-09T23:37:06.841Z,1.60
2023-04-09T23:39:39.460Z,1.63
2023-04-09T23:42:12.059Z,1.67
2023-04-09T23:44:44.594Z,1.73
2023-04-09T23:47:17.829Z,2.00
2023-04-09T23:49:50.467Z,1.42
2023-04-09T23:52:23.010Z,1.63
2023-04-09T23:54:56.150Z,1.55
2023-04-09T23:57:29.881Z,1.60
